Time;durP1;ratioP1;P1;durP2;ratioP2;P2;SDS_P1;SDS_P2;PMS_P1;PMS_P2;Temp;Humidity;BMP_temperature;BMP_pressure;BME280_temperature;BME280_humidity;BME280_pressure;Samples;Min_cycle;Max_cycle;Signal;HPM_P1;HPM_P2
2022/03/19 00:00:33;;;;;;;;;;;21.20;99.90;;;;;;5052234;28;20326;-70
2022/03/19 00:03:00;;;;;;;;;;;21.00;99.90;;;;;;5052072;28;19909;-70
2022/03/19 00:05:27;;;;;;;;;;;20.90;99.90;;;;;;5052616;28;19995;-70
2022/03/19 00:07:54;;;;;;;;;;;20.90;99.90;;;;;;5052692;28;20367;-70
2022/03/19 00:10:22;;;;;;;;;;;21.00;99.90;;;;;;5052325;28;19915;-70
2022/03/19 00:12:49;;;;;;;;;;;21.10;99.90;;;;;;5043926;28;19915;-70
2022/03/19 00:15:19;;;;;;;;;;;21.20;99.90;;;;;;5052335;28;19909;-70
2022/03/19 00:17:46;;;;;;;;;;;21.30;99.90;;;;;;5051522;28;19921;-69
2022/03/19 00:20:13;;;;;;;;;;;21.40;99.90;;;;;;5051998;28;20363;-70
2022/03/19 00:22:39;;;;;;;;;;;21.40;99.90;;;;;;5052242;28;20059;-69
2022/03/19 00:25:08;;;;;;;;;;;21.30;99.90;;;;;;5052162;28;19915;-69
2022/03/19 00:27:34;;;;;;;;;;;21.40;99.90;;;;;;5052035;28;19909;-70
2022/03/19 00:30:01;;;;;;;;;;;21.30;99.90;;;;;;5051965;28;20260;-69
2022/03/19 00:32:28;;;;;;;;;;;21.30;99.90;;;;;;5051519;28;19932;-69
2022/03/19 00:34:54;;;;;;;;;;;21.00;99.90;;;;;;5052010;28;19909;-69
2022/03/19 00:37:21;;;;;;;;;;;20.60;99.90;;;;;;5052114;28;19913;-69
2022/03/19 00:39:48;;;;;;;;;;;20.10;99.90;;;;;;5051914;28;19917;-70
2022/03/19 00:42:14;;;;;;;;;;;19.90;99.90;;;;;;5051827;28;19954;-69
2022/03/19 00:44:42;;;;;;;;;;;19.60;99.90;;;;;;5051864;28;20012;-69
2022/03/19 00:47:08;;;;;;;;;;;19.30;99.90;;;;;;5051793;28;20429;-70
2022/03/19 00:49:35;;;;;;;;;;;19.40;99.90;;;;;;5052092;28;19909;-69
2022/03/19 00:52:02;;;;;;;;;;;19.30;99.90;;;;;;5051863;28;20283;-69
2022/03/19 00:54:28;;;;;;;;;;;19.50;99.90;;;;;;5051994;28;19913;-69
2022/03/19 00:56:55;;;;;;;;;;;19.70;99.90;;;;;;5051767;28;19908;-69
2022/03/19 00:59:21;;;;;;;;;;;19.70;99.90;;;;;;5050572;28;19916;-70
2022/03/19 01:01:48;;;;;;;;;;;19.70;99.90;;;;;;5043823;28;20340;-70
2022/03/19 01:04:15;;;;;;;;;;;19.50;99.90;;;;;;5051527;28;19909;-70
2022/03/19 01:06:41;;;;;;;;;;;19.50;99.90;;;;;;5051945;28;19944;-70
2022/03/19 01:09:08;;;;;;;;;;;19.50;99.90;;;;;;5052168;28;19944;-70
2022/03/19 01:11:35;;;;;;;;;;;19.40;99.90;;;;;;5053568;28;19909;-69
2022/03/19 01:14:01;;;;;;;;;;;19.30;99.90;;;;;;5055705;28;19913;-69
2022/03/19 01:16:28;;;;;;;;;;;19.20;99.90;;;;;;5055255;28;19909;-69
2022/03/19 01:18:55;;;;;;;;;;;19.20;99.90;;;;;;5055520;28;19931;-69
2022/03/19 01:21:21;;;;;;;;;;;19.10;99.90;;;;;;5055202;28;19980;-70
2022/03/19 01:23:48;;;;;;;;;;;19.10;99.90;;;;;;5055250;28;20012;-70
2022/03/19 01:26:14;;;;;;;;;;;19.10;99.90;;;;;;5055591;28;19940;-70
2022/03/19 01:28:41;;;;;;;;;;;19.10;99.90;;;;;;5055163;28;19988;-70
2022/03/19 01:31:11;;;;;;;;;;;18.90;99.90;;;;;;5055270;28;19909;-70
2022/03/19 01:33:38;;;;;;;;;;;19.10;99.90;;;;;;5054934;28;19909;-70
2022/03/19 01:36:05;;;;;;;;;;;19.20;99.90;;;;;;5054689;28;19909;-70
2022/03/19 01:38:31;;;;;;;;;;;19.30;99.90;;;;;;5055025;28;19909;-70
2022/03/19 01:41:01;;;;;;;;;;;19.30;99.90;;;;;;5037403;28;19908;-70
2022/03/19 01:43:28;;;;;;;;;;;19.50;99.90;;;;;;5054760;28;20332;-71
2022/03/19 01:45:57;;;;;;;;;;;19.70;99.90;;;;;;5055314;28;20371;-71
2022/03/19 01:48:25;;;;;;;;;;;19.80;99.90;;;;;;5054863;28;20260;-71
2022/03/19 01:50:52;;;;;;;;;;;20.00;99.90;;;;;;5055013;28;19909;-71
2022/03/19 01:53:18;;;;;;;;;;;20.20;99.90;;;;;;5054983;28;19909;-70
2022/03/19 01:55:45;;;;;;;;;;;20.10;99.90;;;;;;5055009;28;19924;-70
2022/03/19 01:58:16;;;;;;;;;;;20.00;99.90;;;;;;5054551;28;19948;-70
2022/03/19 02:00:43;;;;;;;;;;;20.00;99.90;;;;;;5054986;28;20020;-70
2022/03/19 02:03:09;;;;;;;;;;;19.90;99.90;;;;;;5054602;28;19920;-70
2022/03/19 02:05:36;;;;;;;;;;;19.90;99.90;;;;;;5054435;28;20367;-70
2022/03/19 02:08:03;;;;;;;;;;;20.00;99.90;;;;;;5054318;28;19913;-71
2022/03/19 02:10:40;;;;;;;;;;;20.10;99.90;;;;;;5054973;28;20322;-70
2022/03/19 02:13:07;;;;;;;;;;;20.20;99.90;;;;;;5032618;28;20318;-68
2022/03/19 02:15:33;;;;;;;;;;;20.30;99.90;;;;;;5052700;28;20359;-68
2022/03/19 02:18:00;;;;;;;;;;;20.50;99.90;;;;;;5054371;28;19935;-69
2022/03/19 02:20:31;;;;;;;;;;;20.60;99.90;;;;;;5054206;28;19925;-69
2022/03/19 02:25:47;;;;;;;;;;;20.80;99.90;;;;;;5054804;28;19963;-69
2022/03/19 02:28:13;;;;;;;;;;;20.90;99.90;;;;;;5053957;28;19952;-69
2022/03/19 02:30:41;;;;;;;;;;;20.90;99.90;;;;;;5053995;28;19916;-69
2022/03/19 02:33:08;;;;;;;;;;;20.90;99.90;;;;;;5054177;28;20279;-69
2022/03/19 02:35:35;;;;;;;;;;;21.00;99.90;;;;;;5054170;28;19916;-69
2022/03/19 02:38:02;;;;;;;;;;;21.00;99.90;;;;;;5054090;28;20409;-69
2022/03/19 02:40:28;;;;;;;;;;;21.00;99.90;;;;;;5054278;28;20003;-69
2022/03/19 02:42:55;;;;;;;;;;;21.00;99.90;;;;;;5053735;28;19915;-68
2022/03/19 02:45:23;;;;;;;;;;;21.00;99.90;;;;;;5053929;28;19962;-69
2022/03/19 02:47:58;;;;;;;;;;;21.00;99.90;;;;;;5053600;28;19955;-69
2022/03/19 02:50:27;;;;;;;;;;;21.10;99.90;;;;;;5053159;28;19912;-69
2022/03/19 02:52:54;;;;;;;;;;;21.00;99.90;;;;;;5053616;28;20363;-69
2022/03/19 02:55:21;;;;;;;;;;;21.20;99.90;;;;;;5053438;28;19909;-69
2022/03/19 02:57:48;;;;;;;;;;;21.20;99.90;;;;;;5053443;28;19909;-69
2022/03/19 03:00:15;;;;;;;;;;;21.10;99.90;;;;;;5053236;28;20352;-69
2022/03/19 03:02:41;;;;;;;;;;;21.20;99.90;;;;;;5053379;28;20383;-69
2022/03/19 03:05:10;;;;;;;;;;;21.20;99.90;;;;;;5053226;28;20247;-69
2022/03/19 03:07:37;;;;;;;;;;;21.20;99.90;;;;;;5053474;28;19916;-69
2022/03/19 03:10:04;;;;;;;;;;;21.20;99.90;;;;;;5053334;28;19908;-70
2022/03/19 03:12:31;;;;;;;;;;;21.20;99.90;;;;;;5053619;28;19909;-69
2022/03/19 03:14:57;;;;;;;;;;;21.30;99.90;;;;;;5053257;28;20353;-69
2022/03/19 03:17:24;;;;;;;;;;;21.40;99.90;;;;;;5052925;28;20283;-70
2022/03/19 03:19:51;;;;;;;;;;;21.40;99.90;;;;;;5053226;28;19924;-70
2022/03/19 03:22:18;;;;;;;;;;;21.40;99.90;;;;;;5052986;28;20004;-70
2022/03/19 03:24:44;;;;;;;;;;;21.40;99.90;;;;;;5053447;28;19909;-70
2022/03/19 03:27:11;;;;;;;;;;;21.40;99.90;;;;;;5052779;28;20359;-70
2022/03/19 03:29:38;;;;;;;;;;;21.50;99.90;;;;;;5052934;28;19909;-70
2022/03/19 03:32:04;;;;;;;;;;;21.60;99.90;;;;;;5053012;28;19952;-70
2022/03/19 03:34:31;;;;;;;;;;;21.50;99.90;;;;;;5051817;28;20351;-70
2022/03/19 03:36:58;;;;;;;;;;;21.50;99.90;;;;;;5052846;28;19909;-70
2022/03/19 03:39:24;;;;;;;;;;;21.50;99.90;;;;;;5052796;28;20325;-69
2022/03/19 03:41:51;;;;;;;;;;;21.50;99.90;;;;;;5052263;28;19916;-70
2022/03/19 03:44:17;;;;;;;;;;;21.60;99.90;;;;;;5052731;28;19934;-70
2022/03/19 03:46:44;;;;;;;;;;;21.50;99.90;;;;;;5052795;28;19916;-69
2022/03/19 03:49:11;;;;;;;;;;;21.60;99.90;;;;;;5052659;28;19916;-70
2022/03/19 03:51:38;;;;;;;;;;;21.60;99.90;;;;;;5052957;28;19909;-70
2022/03/19 03:54:05;;;;;;;;;;;21.70;99.90;;;;;;5052368;28;20350;-70
2022/03/19 03:56:32;;;;;;;;;;;21.80;99.90;;;;;;5052425;28;20352;-70
2022/03/19 03:58:59;;;;;;;;;;;21.80;99.90;;;;;;5052413;28;19923;-70
2022/03/19 04:01:25;;;;;;;;;;;21.90;99.90;;;;;;5052242;28;19912;-70
2022/03/19 04:03:53;;;;;;;;;;;22.00;99.90;;;;;;5052371;28;20236;-70
2022/03/19 04:06:19;;;;;;;;;;;21.90;99.90;;;;;;5052449;28;19909;-70
2022/03/19 04:08:46;;;;;;;;;;;21.80;99.90;;;;;;5052437;28;20278;-70
2022/03/19 04:11:13;;;;;;;;;;;21.80;99.90;;;;;;5052637;28;19970;-70
2022/03/19 04:13:39;;;;;;;;;;;21.80;99.90;;;;;;5051354;28;20011;-70
2022/03/19 04:16:06;;;;;;;;;;;21.90;99.90;;;;;;5052167;28;19909;-70
2022/03/19 04:18:33;;;;;;;;;;;22.00;99.90;;;;;;5052158;28;19924;-69
2022/03/19 04:20:59;;;;;;;;;;;21.90;99.90;;;;;;5052319;28;19909;-69
2022/03/19 04:23:26;;;;;;;;;;;21.80;99.90;;;;;;5052436;28;19909;-69
2022/03/19 04:25:53;;;;;;;;;;;21.60;99.90;;;;;;5052196;28;20256;-70
2022/03/19 04:28:19;;;;;;;;;;;21.60;99.90;;;;;;5052345;28;19908;-70
2022/03/19 04:30:47;;;;;;;;;;;21.70;99.90;;;;;;5052440;28;19909;-70
2022/03/19 04:33:19;;;;;;;;;;;21.80;99.90;;;;;;5052211;28;19912;-69
2022/03/19 04:38:30;;;;;;;;;;;21.80;99.90;;;;;;5052532;28;20378;-69
2022/03/19 04:40:59;;;;;;;;;;;21.70;99.90;;;;;;5052189;28;19913;-70
2022/03/19 04:43:26;;;;;;;;;;;21.70;99.90;;;;;;5052464;28;19915;-70
2022/03/19 04:45:53;;;;;;;;;;;21.70;99.90;;;;;;5052918;28;19913;-70
2022/03/19 04:48:19;;;;;;;;;;;21.60;99.90;;;;;;5056117;28;19915;-70
2022/03/19 04:50:48;;;;;;;;;;;21.50;99.90;;;;;;5056288;28;19920;-69
2022/03/19 04:53:14;;;;;;;;;;;21.50;99.90;;;;;;5055790;28;19908;-69
2022/03/19 04:55:42;;;;;;;;;;;21.60;99.90;;;;;;5055820;28;19913;-70
2022/03/19 04:58:09;;;;;;;;;;;21.60;99.90;;;;;;5055721;28;19917;-70
2022/03/19 05:00:36;;;;;;;;;;;21.70;99.90;;;;;;5055959;28;19952;-70
2022/03/19 05:03:04;;;;;;;;;;;21.70;99.90;;;;;;5055870;28;20410;-69
2022/03/19 05:05:30;;;;;;;;;;;21.60;99.90;;;;;;5055796;28;20342;-70
2022/03/19 05:07:57;;;;;;;;;;;21.60;99.90;;;;;;5055794;28;20314;-70
2022/03/19 05:13:09;;;;;;;;;;;21.70;99.90;;;;;;5056157;28;19963;-70
2022/03/19 05:15:35;;;;;;;;;;;21.60;99.90;;;;;;5055561;28;19915;-70
2022/03/19 05:18:02;;;;;;;;;;;21.60;99.90;;;;;;5055179;28;20397;-70
2022/03/19 05:20:29;;;;;;;;;;;21.60;99.90;;;;;;5055376;28;19917;-70
2022/03/19 05:22:56;;;;;;;;;;;21.60;99.90;;;;;;5055589;28;19916;-70
2022/03/19 05:25:22;;;;;;;;;;;21.50;99.90;;;;;;5055468;28;20402;-70
2022/03/19 05:27:49;;;;;;;;;;;21.60;99.90;;;;;;5047318;28;19912;-69
2022/03/19 05:30:16;;;;;;;;;;;21.50;99.90;;;;;;5055230;28;19909;-70
2022/03/19 05:32:43;;;;;;;;;;;21.50;99.90;;;;;;5055055;28;19962;-69
2022/03/19 05:35:10;;;;;;;;;;;21.50;99.90;;;;;;5055110;28;19909;-69
2022/03/19 05:37:37;;;;;;;;;;;21.40;99.90;;;;;;5055249;28;20005;-70
2022/03/19 05:40:07;;;;;;;;;;;21.50;99.90;;;;;;5054785;28;19920;-70
2022/03/19 05:42:34;;;;;;;;;;;21.50;99.90;;;;;;5055101;28;19916;-70
2022/03/19 05:45:00;;;;;;;;;;;21.40;99.90;;;;;;5055017;28;19909;-70
2022/03/19 05:47:27;;;;;;;;;;;21.60;99.90;;;;;;5055237;28;20327;-69
2022/03/19 05:49:54;;;;;;;;;;;21.60;99.90;;;;;;5054874;28;20266;-69
2022/03/19 05:52:21;;;;;;;;;;;21.60;99.90;;;;;;5054827;28;19951;-69
2022/03/19 05:54:47;;;;;;;;;;;21.60;99.90;;;;;;5055004;28;19916;-70
2022/03/19 05:57:14;;;;;;;;;;;21.60;99.90;;;;;;5053602;28;19912;-69
2022/03/19 05:59:41;;;;;;;;;;;21.60;99.90;;;;;;5054333;28;19917;-70
2022/03/19 06:02:07;;;;;;;;;;;21.80;99.90;;;;;;5054588;28;19916;-69
2022/03/19 06:04:35;;;;;;;;;;;21.90;99.90;;;;;;5054614;28;19909;-69
2022/03/19 06:07:02;;;;;;;;;;;21.80;99.90;;;;;;5054451;28;19909;-70
2022/03/19 06:09:29;;;;;;;;;;;21.60;99.90;;;;;;5054471;28;19909;-69
2022/03/19 06:11:55;;;;;;;;;;;21.60;99.90;;;;;;5054499;28;19916;-69
2022/03/19 06:14:22;;;;;;;;;;;21.50;99.90;;;;;;5054466;28;19912;-69
2022/03/19 06:16:52;;;;;;;;;;;21.50;99.90;;;;;;5054315;28;20302;-70
2022/03/19 06:19:19;;;;;;;;;;;21.40;99.90;;;;;;5054277;28;19917;-69
2022/03/19 06:21:49;;;;;;;;;;;21.50;99.90;;;;;;5054471;28;20345;-70
2022/03/19 06:24:34;;;;;;;;;;;21.50;99.90;;;;;;5054130;28;19909;-70
2022/03/19 06:27:00;;;;;;;;;;;21.50;99.90;;;;;;5054294;28;20244;-70
2022/03/19 06:29:27;;;;;;;;;;;21.40;99.90;;;;;;5054114;28;20332;-70
2022/03/19 06:31:54;;;;;;;;;;;21.40;99.90;;;;;;5054154;28;19995;-70
2022/03/19 06:34:20;;;;;;;;;;;21.30;99.90;;;;;;5053976;28;19943;-70
2022/03/19 06:39:32;;;;;;;;;;;21.20;99.90;;;;;;5054364;28;19923;-70
2022/03/19 06:41:58;;;;;;;;;;;21.10;99.90;;;;;;5053903;28;19935;-71
2022/03/19 06:44:25;;;;;;;;;;;21.10;99.90;;;;;;5053871;28;19963;-68
2022/03/19 06:46:52;;;;;;;;;;;21.10;99.90;;;;;;5053787;28;19909;-70
2022/03/19 06:49:18;;;;;;;;;;;21.10;99.90;;;;;;5054055;28;19909;-68
2022/03/19 06:51:45;;;;;;;;;;;21.10;99.90;;;;;;5053834;28;19908;-69
2022/03/19 06:54:12;;;;;;;;;;;21.00;99.90;;;;;;5053782;28;19978;-69
2022/03/19 06:56:38;;;;;;;;;;;21.00;99.90;;;;;;5053907;28;19913;-68
2022/03/19 06:59:05;;;;;;;;;;;21.00;99.90;;;;;;5053696;28;19939;-68
2022/03/19 07:01:36;;;;;;;;;;;20.90;99.90;;;;;;5053762;28;19992;-68
2022/03/19 07:04:03;;;;;;;;;;;20.80;99.90;;;;;;5053497;28;19935;-69
2022/03/19 07:06:30;;;;;;;;;;;20.80;99.90;;;;;;5053270;28;20007;-69
2022/03/19 07:08:57;;;;;;;;;;;20.80;99.90;;;;;;5053124;28;20271;-69
2022/03/19 07:11:24;;;;;;;;;;;20.90;99.90;;;;;;5053296;28;20348;-69
2022/03/19 07:13:50;;;;;;;;;;;20.90;99.90;;;;;;5053313;28;19909;-69
2022/03/19 07:16:17;;;;;;;;;;;20.80;99.90;;;;;;5053151;28;19912;-69
2022/03/19 07:18:44;;;;;;;;;;;20.70;99.90;;;;;;5053456;28;19917;-69
2022/03/19 07:21:11;;;;;;;;;;;20.70;99.90;;;;;;5053344;28;19909;-69
2022/03/19 07:23:38;;;;;;;;;;;20.60;99.90;;;;;;5053587;28;19944;-70
2022/03/19 07:26:05;;;;;;;;;;;20.60;99.90;;;;;;5052888;28;19931;-70
2022/03/19 07:28:31;;;;;;;;;;;20.60;99.90;;;;;;5053338;28;19909;-70
2022/03/19 07:30:58;;;;;;;;;;;20.60;99.90;;;;;;5053006;28;20278;-70
2022/03/19 07:33:26;;;;;;;;;;;20.60;99.90;;;;;;5053082;28;19913;-69
2022/03/19 07:35:52;;;;;;;;;;;20.60;99.90;;;;;;5052905;28;19956;-70
2022/03/19 07:38:19;;;;;;;;;;;20.50;99.90;;;;;;5035162;28;20021;-70
2022/03/19 07:43:31;;;;;;;;;;;20.50;99.90;;;;;;5053431;28;19955;-70
2022/03/19 07:45:58;;;;;;;;;;;20.50;99.90;;;;;;5052781;28;19913;-70
2022/03/19 07:48:25;;;;;;;;;;;20.50;99.90;;;;;;5052884;28;20256;-70
2022/03/19 07:50:52;;;;;;;;;;;20.40;99.90;;;;;;5052925;28;19970;-70
2022/03/19 07:53:19;;;;;;;;;;;20.40;99.90;;;;;;5052518;28;19995;-70
2022/03/19 07:55:46;;;;;;;;;;;20.40;99.90;;;;;;5052653;28;19951;-70
2022/03/19 07:58:13;;;;;;;;;;;20.30;99.90;;;;;;5052580;28;20275;-70
2022/03/19 08:00:40;;;;;;;;;;;20.30;99.90;;;;;;5052577;28;20398;-70
2022/03/19 08:03:06;;;;;;;;;;;20.30;99.90;;;;;;5052603;28;19948;-70
2022/03/19 08:05:33;;;;;;;;;;;20.30;99.90;;;;;;5052715;28;20442;-70
2022/03/19 08:07:59;;;;;;;;;;;20.30;99.90;;;;;;5052634;28;20000;-69
2022/03/19 08:10:26;;;;;;;;;;;20.30;99.90;;;;;;5052224;28;19916;-70
2022/03/19 08:12:59;;;;;;;;;;;20.30;99.90;;;;;;5052657;28;20050;-69
2022/03/19 08:15:29;;;;;;;;;;;20.20;99.90;;;;;;5052648;28;20291;-69
2022/03/19 08:17:56;;;;;;;;;;;20.20;99.90;;;;;;5049798;28;19966;-69
2022/03/19 08:20:22;;;;;;;;;;;20.20;99.90;;;;;;5051856;28;20014;-69
2022/03/19 08:22:49;;;;;;;;;;;20.10;99.90;;;;;;5044348;28;19928;-69
2022/03/19 08:25:16;;;;;;;;;;;20.20;99.90;;;;;;5056837;28;19923;-69
2022/03/19 08:27:42;;;;;;;;;;;20.20;99.90;;;;;;5072155;28;20370;-69
2022/03/19 08:30:09;;;;;;;;;;;20.20;99.90;;;;;;5071953;28;19908;-70
2022/03/19 08:32:36;;;;;;;;;;;20.20;99.90;;;;;;5072287;28;19908;-70
2022/03/19 08:35:03;;;;;;;;;;;20.20;99.90;;;;;;5072280;28;19940;-69
2022/03/19 08:37:30;;;;;;;;;;;20.20;99.90;;;;;;5072386;28;19920;-69
2022/03/19 08:42:41;;;;;;;;;;;20.30;99.90;;;;;;5072661;28;19916;-69
2022/03/19 08:45:08;;;;;;;;;;;20.20;99.90;;;;;;5072313;28;19909;-69
2022/03/19 08:47:34;;;;;;;;;;;20.20;99.90;;;;;;5072545;28;20297;-70
2022/03/19 08:50:01;;;;;;;;;;;20.20;99.90;;;;;;5072237;28;19909;-69
2022/03/19 08:52:28;;;;;;;;;;;20.20;99.90;;;;;;5071824;28;19909;-69
2022/03/19 08:54:55;;;;;;;;;;;20.20;99.90;;;;;;5071534;28;19952;-69
2022/03/19 08:57:22;;;;;;;;;;;20.20;99.90;;;;;;5071946;28;19916;-69
2022/03/19 08:59:48;;;;;;;;;;;20.10;99.90;;;;;;5072030;28;19916;-70
2022/03/19 09:02:16;;;;;;;;;;;20.10;99.90;;;;;;5071358;28;19916;-69
2022/03/19 09:04:42;;;;;;;;;;;20.10;99.90;;;;;;5071696;28;19999;-69
2022/03/19 09:07:09;;;;;;;;;;;20.10;99.90;;;;;;5072036;28;19917;-69
2022/03/19 09:09:36;;;;;;;;;;;20.10;99.90;;;;;;5071854;28;19963;-69
2022/03/19 09:12:03;;;;;;;;;;;20.10;99.90;;;;;;5071799;28;20314;-69
2022/03/19 09:14:29;;;;;;;;;;;20.10;99.90;;;;;;5069876;28;19935;-69
2022/03/19 09:16:56;;;;;;;;;;;20.10;99.90;;;;;;5069718;28;19924;-69
2022/03/19 09:19:27;;;;;;;;;;;20.10;99.90;;;;;;5069493;28;19920;-71
2022/03/19 09:21:54;;;;;;;;;;;20.10;99.90;;;;;;5069843;28;19935;-69
2022/03/19 09:24:21;;;;;;;;;;;20.00;99.90;;;;;;5069346;28;19912;-70
2022/03/19 09:26:49;;;;;;;;;;;20.00;99.90;;;;;;5069531;28;19912;-69
2022/03/19 09:29:15;;;;;;;;;;;20.00;99.90;;;;;;5069622;28;20113;-69
2022/03/19 09:31:42;;;;;;;;;;;20.00;99.90;;;;;;5070081;28;20365;-69
2022/03/19 09:34:11;;;;;;;;;;;20.00;99.90;;;;;;5073249;28;19909;-69
2022/03/19 09:36:40;;;;;;;;;;;20.00;99.90;;;;;;5073274;28;20384;-70
2022/03/19 09:39:07;;;;;;;;;;;19.90;99.90;;;;;;5073310;28;20050;-69
2022/03/19 09:41:34;;;;;;;;;;;20.00;99.90;;;;;;5073105;28;19920;-69
2022/03/19 09:44:01;;;;;;;;;;;20.00;99.90;;;;;;5073047;28;20003;-70
2022/03/19 09:46:27;;;;;;;;;;;19.90;99.90;;;;;;5072758;28;19908;-69
2022/03/19 09:48:54;;;;;;;;;;;20.00;99.90;;;;;;5073080;28;19908;-70
2022/03/19 09:51:21;;;;;;;;;;;20.00;99.90;;;;;;5072947;28;19912;-69
2022/03/19 09:53:48;;;;;;;;;;;20.10;99.90;;;;;;5072456;28;19970;-70
2022/03/19 09:56:16;;;;;;;;;;;20.10;99.90;;;;;;5072754;28;19909;-70
2022/03/19 09:58:43;;;;;;;;;;;20.10;99.90;;;;;;5072930;28;19916;-70
2022/03/19 10:01:09;;;;;;;;;;;20.10;99.90;;;;;;5072356;28;19916;-69
2022/03/19 10:03:40;;;;;;;;;;;20.10;99.90;;;;;;5072718;28;20463;-70
2022/03/19 10:09:18;;;;;;;;;;;20.10;99.90;;;;;;4971210;28;19956;-69
2022/03/19 10:11:47;;;;;;;;;;;20.20;99.90;;;;;;4971763;28;20074;-68
2022/03/19 10:14:19;;;;;;;;;;;20.20;99.90;;;;;;5021197;28;19998;-68
2022/03/19 10:16:48;;;;;;;;;;;20.20;99.90;;;;;;5072237;28;19920;-68
2022/03/19 10:19:14;;;;;;;;;;;20.20;99.90;;;;;;5072535;28;19921;-69
2022/03/19 10:21:41;;;;;;;;;;;20.20;99.90;;;;;;5072533;28;19915;-70
2022/03/19 10:24:08;;;;;;;;;;;20.20;99.90;;;;;;5072018;28;19924;-70
2022/03/19 10:26:37;;;;;;;;;;;20.20;99.90;;;;;;5072484;28;19954;-69
2022/03/19 10:29:05;;;;;;;;;;;20.20;99.90;;;;;;5072267;28;19912;-68
2022/03/19 10:31:35;;;;;;;;;;;20.20;99.90;;;;;;5072348;28;19936;-68
2022/03/19 10:34:03;;;;;;;;;;;20.20;99.90;;;;;;5071817;28;19955;-69
2022/03/19 10:36:34;;;;;;;;;;;20.20;99.90;;;;;;5071971;28;20367;-69
2022/03/19 10:39:05;;;;;;;;;;;20.20;99.90;;;;;;5071727;28;19963;-68
2022/03/19 10:41:35;;;;;;;;;;;20.20;99.90;;;;;;5072383;28;20366;-68
2022/03/19 10:44:20;;;;;;;;;;;20.20;99.90;;;;;;5071640;28;19966;-68
2022/03/19 10:46:51;;;;;;;;;;;20.20;99.90;;;;;;5071632;28;19912;-71
2022/03/19 10:49:18;;;;;;;;;;;20.10;99.90;;;;;;5071822;28;19986;-69
2022/03/19 10:51:49;;;;;;;;;;;20.10;99.90;;;;;;5071687;28;20003;-69
2022/03/19 10:54:16;;;;;;;;;;;20.10;99.90;;;;;;5071527;28;19912;-69
2022/03/19 10:56:44;;;;;;;;;;;20.10;99.90;;;;;;5071672;28;19919;-68
2022/03/19 10:59:10;;;;;;;;;;;20.10;99.90;;;;;;5071410;28;19917;-68
2022/03/19 11:01:37;;;;;;;;;;;20.20;99.90;;;;;;5071446;28;19908;-68
2022/03/19 11:04:05;;;;;;;;;;;20.20;99.90;;;;;;5071374;28;19912;-68
2022/03/19 11:06:35;;;;;;;;;;;20.10;99.90;;;;;;5071622;28;20014;-68
2022/03/19 11:09:05;;;;;;;;;;;20.20;99.90;;;;;;5071488;28;19935;-68
2022/03/19 11:11:38;;;;;;;;;;;20.10;99.90;;;;;;5071033;28;19913;-70
2022/03/19 11:14:05;;;;;;;;;;;20.20;99.90;;;;;;5036438;28;19913;-69
2022/03/19 11:16:37;;;;;;;;;;;20.20;99.90;;;;;;5071424;28;19948;-69
2022/03/19 11:19:08;;;;;;;;;;;20.20;99.90;;;;;;5071301;28;19924;-69
2022/03/19 11:21:35;;;;;;;;;;;20.10;99.90;;;;;;5071411;28;19908;-70
2022/03/19 11:24:06;;;;;;;;;;;20.20;99.90;;;;;;5071227;28;20286;-69
2022/03/19 11:26:33;;;;;;;;;;;20.10;99.90;;;;;;5071025;28;19951;-69
2022/03/19 11:29:00;;;;;;;;;;;20.10;99.90;;;;;;5071258;28;19996;-69
2022/03/19 11:31:30;;;;;;;;;;;20.10;99.90;;;;;;5070849;28;19908;-70
2022/03/19 11:33:59;;;;;;;;;;;20.10;99.90;;;;;;5071120;28;19916;-70
2022/03/19 11:36:26;;;;;;;;;;;20.10;99.90;;;;;;5070822;28;19912;-70
2022/03/19 11:38:54;;;;;;;;;;;20.10;99.90;;;;;;5052714;28;20662;-70
2022/03/19 11:41:30;;;;;;;;;;;20.10;99.90;;;;;;5070933;28;19920;-70
2022/03/19 11:44:15;;;;;;;;;;;20.10;99.90;;;;;;5070978;28;19931;-69
2022/03/19 11:47:01;;;;;;;;;;;20.10;99.90;;;;;;5070772;28;19958;-69
2022/03/19 11:50:03;;;;;;;;;;;20.00;99.90;;;;;;5070925;28;19908;-70
2022/03/19 11:52:29;;;;;;;;;;;20.00;99.90;;;;;;4969462;28;19945;-70
2022/03/19 11:55:05;;;;;;;;;;;20.00;99.90;;;;;;5050094;28;20027;-69
2022/03/19 11:58:03;;;;;;;;;;;19.90;99.90;;;;;;5070089;28;19908;-69
2022/03/19 12:00:34;;;;;;;;;;;19.90;99.90;;;;;;5050766;28;19920;-69
2022/03/19 12:03:07;;;;;;;;;;;19.80;99.90;;;;;;5070413;28;19962;-70
2022/03/19 12:05:35;;;;;;;;;;;19.80;99.90;;;;;;5070313;28;19917;-70
2022/03/19 12:08:20;;;;;;;;;;;19.80;99.90;;;;;;5070303;28;19915;-70
2022/03/19 12:10:54;;;;;;;;;;;19.80;99.90;;;;;;5070715;28;19916;-70
2022/03/19 12:13:35;;;;;;;;;;;19.80;99.90;;;;;;5070727;28;20374;-69
2022/03/19 12:16:08;;;;;;;;;;;19.80;99.90;;;;;;5070287;28;19912;-69
2022/03/19 12:18:43;;;;;;;;;;;19.80;99.90;;;;;;5069634;28;19999;-70
2022/03/19 12:21:09;;;;;;;;;;;19.70;99.90;;;;;;5070588;28;20391;-69
2022/03/19 12:23:42;;;;;;;;;;;19.70;99.90;;;;;;5052488;28;19918;-69
2022/03/19 12:26:10;;;;;;;;;;;19.70;99.90;;;;;;5070600;28;20362;-69
2022/03/19 12:28:37;;;;;;;;;;;19.70;99.90;;;;;;5070410;28;19920;-70
2022/03/19 12:31:11;;;;;;;;;;;19.70;99.90;;;;;;5070079;28;19924;-70
2022/03/19 12:33:38;;;;;;;;;;;19.70;99.90;;;;;;5052468;28;20359;-69
2022/03/19 12:36:18;;;;;;;;;;;19.60;99.90;;;;;;5070131;28;19912;-70
2022/03/19 12:38:45;;;;;;;;;;;19.60;99.90;;;;;;5070206;28;19908;-69
2022/03/19 12:41:27;;;;;;;;;;;19.60;99.90;;;;;;5070397;28;20252;-69
2022/03/19 12:43:55;;;;;;;;;;;19.50;99.90;;;;;;5069699;28;19927;-70
2022/03/19 12:46:23;;;;;;;;;;;19.50;99.90;;;;;;5069921;28;19936;-69
2022/03/19 12:48:49;;;;;;;;;;;19.50;99.90;;;;;;5070291;28;19920;-69
2022/03/19 12:51:23;;;;;;;;;;;19.50;99.90;;;;;;5069958;28;20019;-70
2022/03/19 12:53:50;;;;;;;;;;;19.50;99.90;;;;;;5069931;28;19955;-69
2022/03/19 12:56:19;;;;;;;;;;;19.50;99.90;;;;;;5069532;28;20073;-69
2022/03/19 12:58:48;;;;;;;;;;;19.40;99.90;;;;;;5070070;28;19919;-69
2022/03/19 13:01:15;;;;;;;;;;;19.40;99.90;;;;;;5070143;28;20355;-70
2022/03/19 13:03:42;;;;;;;;;;;19.40;99.90;;;;;;5070164;28;19915;-70
2022/03/19 13:06:09;;;;;;;;;;;19.40;99.90;;;;;;5069907;28;19912;-70
2022/03/19 13:08:46;;;;;;;;;;;19.40;99.90;;;;;;5073287;28;20436;-70
2022/03/19 13:11:15;;;;;;;;;;;19.30;99.90;;;;;;5073532;28;19970;-70
2022/03/19 13:13:43;;;;;;;;;;;19.30;99.90;;;;;;5073724;28;19915;-70
2022/03/19 13:16:10;;;;;;;;;;;19.20;99.90;;;;;;5073580;28;19908;-70
2022/03/19 13:18:37;;;;;;;;;;;19.30;99.90;;;;;;5073426;28;20003;-70
2022/03/19 13:21:07;;;;;;;;;;;19.20;99.90;;;;;;5073382;28;19920;-70
2022/03/19 13:23:38;;;;;;;;;;;19.10;99.90;;;;;;5072835;28;19928;-70
2022/03/19 13:26:05;;;;;;;;;;;19.10;99.90;;;;;;5073571;28;20316;-70
2022/03/19 13:28:32;;;;;;;;;;;19.00;99.90;;;;;;5073441;28;20246;-70
2022/03/19 13:30:59;;;;;;;;;;;18.90;99.90;;;;;;5073515;28;20336;-70
2022/03/19 13:33:28;;;;;;;;;;;18.90;99.90;;;;;;5073753;28;19912;-70
2022/03/19 13:35:55;;;;;;;;;;;18.90;99.90;;;;;;5072955;28;19920;-70
2022/03/19 13:38:22;;;;;;;;;;;18.90;99.90;;;;;;5072932;28;19909;-70
2022/03/19 13:40:53;;;;;;;;;;;18.90;99.90;;;;;;5073107;28;19928;-70
2022/03/19 13:43:35;;;;;;;;;;;18.90;99.90;;;;;;5073078;28;20626;-70
2022/03/19 13:46:11;;;;;;;;;;;18.80;99.90;;;;;;5073049;28;19978;-70
2022/03/19 13:48:39;;;;;;;;;;;18.80;99.90;;;;;;5072978;28;19912;-70
2022/03/19 13:51:06;;;;;;;;;;;18.80;99.90;;;;;;5073115;28;20363;-70
2022/03/19 13:53:50;;;;;;;;;;;18.80;99.90;;;;;;5072964;28;19916;-70
2022/03/19 13:56:17;;;;;;;;;;;18.80;99.90;;;;;;5072816;28;19920;-70
2022/03/19 13:58:58;;;;;;;;;;;18.70;99.90;;;;;;5072662;28;20458;-70
2022/03/19 14:01:30;;;;;;;;;;;18.70;99.90;;;;;;5072878;28;19912;-70
2022/03/19 14:03:57;;;;;;;;;;;18.70;99.90;;;;;;5073157;28;20272;-70
2022/03/19 14:06:33;;;;;;;;;;;18.70;99.90;;;;;;5072702;28;20002;-70
2022/03/19 14:09:00;;;;;;;;;;;18.70;99.90;;;;;;5072600;28;20023;-70
2022/03/19 14:11:38;;;;;;;;;;;18.70;99.90;;;;;;5072653;28;19919;-70
2022/03/19 14:14:07;;;;;;;;;;;18.70;99.90;;;;;;5072500;28;20444;-70
2022/03/19 14:16:37;;;;;;;;;;;18.80;99.90;;;;;;5071850;28;19913;-70
2022/03/19 14:19:04;;;;;;;;;;;18.80;99.90;;;;;;5071311;28;20011;-70
2022/03/19 14:21:30;;;;;;;;;;;18.80;99.90;;;;;;5072749;28;19908;-70
2022/03/19 14:23:57;;;;;;;;;;;18.80;99.90;;;;;;5072151;28;20313;-70
2022/03/19 14:26:23;;;;;;;;;;;18.80;99.90;;;;;;5072250;28;19921;-70
2022/03/19 14:28:52;;;;;;;;;;;18.80;99.90;;;;;;5072275;28;19909;-70
2022/03/19 14:31:19;;;;;;;;;;;18.80;99.90;;;;;;5072316;28;20333;-70
2022/03/19 14:33:45;;;;;;;;;;;18.90;99.90;;;;;;5072132;28;19913;-70
2022/03/19 14:36:13;;;;;;;;;;;18.80;99.90;;;;;;5072057;28;19913;-70
2022/03/19 14:38:41;;;;;;;;;;;18.80;99.90;;;;;;5072094;28;19959;-70
2022/03/19 14:41:15;;;;;;;;;;;18.80;99.90;;;;;;5071431;28;19916;-70